Terminal Aerodrome Forecast
Issued by NWS New Orleans/Baton Rouge, LA

Home | Current Version | Previous Version | Text Only | Print | Product List | Glossary On
Versions: 1 2 3 4 5 6 7 8 9 10 11 12 13 14 15 16
000
FTUS44 KLIX 032348
TAFNEW
TAF
KNEW 032348Z 0400/0424 10016G25KT 6SM -RA SCT015 OVC025
      TEMPO 0403/0407 4SM -RA OVC014
     FM040700 11011KT 4SM -RA BR OVC008
      TEMPO 0409/0413 2SM +SHRA
     FM041300 15007KT 2SM SHRA BR OVC015
     FM041700 19008KT 3SM SHRA OVC010
     FM042100 23007KT 5SM -SHRA OVC015=

USA.gov is the U.S. government's official web portal to all federal, state and local government web resources and services.